Portada
METAR-TAF:

METAR-TAF

Aeropuertos :

Foggia, Italia

latitud: 41-32N, longitud: 015-43E, altitud: 57 m

Observación

El informe se hizo hace 34 minutos, a las 16:55 UTC
Viento 15 kt del noroeste
Temperatura 8°C
Humedad 53%
Presión 1022 hPa
Visibilidad 10 km o más
Escasas nubes a una altura de 4000 ft

METAR: LIBA 201655Z 32015KT 9999 FEW040 08/M01 Q1022 RMK FEW VIS MIN 9999 WIND THR11 32011KT WIND THR29 /////KT BLU

Hora: 18:29 (17:29 UTC)

Pronóstico

El informe se hizo hace 3 horas y 29 minutos, a las 14:00 UTC
Pronóstico válido del 20 a las 15 UTC al 20 a las 24 UTC
Viento 16 kt del norte-noroeste
Visibilidad 10 km o más
Escasas nubes a una altura de 3000 ft
Temporalmente
del 20 a las 15 UTC al 20 a las 17 UTC
Viento 16 kt del norte-noroeste con ráfagas de 26 kt
Evolucionando progresivamente
del 20 a las 18 UTC al 20 a las 20 UTC
Viento 12 kt del oeste-noroeste

TAF: LIBA 201400Z 2015/2024 33016KT 9999 FEW030 TEMPO 2015/2017 33016G26KT BECMG 2018/2020 29012KT

Observaciones y pronósticos meteorológicos de más de 4000 aeropuertos (mensajes METAR y TAF).

Los puntos amarillos y rojos representan las estaciones disponibles.

Ponga el ratón en el punto deseado para ver el nombre de la estación.

Haga clic para ver las observaciones y los pronósticos meteorológicos.

Para cambiar el mapa : haga clic en los botones verdes con una cruz de color negro para hacer un zoom, en el botón verde con un guión para alejar o en las flechas verdes para mapas adyacentes.


METAR-TAF: